CYPR/YPR METAR and TAF weather

Enter ICAO airport designator
Station Type Date Time Source
CYPR METAR 2018/10/21 03:00 UTC NOAA

CYPR 210300Z AUTO 07008KT 9SM CLR 09/08 A3022 RMK SLP236


Station Type Date Time Source
CYPR Decoded METAR 2018/10/21 03:00 UTC NOAA

Prince Rupert, B. C., Canada (CYPR) 54-18N 130-26W 34M
Oct 20, 2018 - 11:00 PM EDT / 2018.10.21 0300 UTC
Wind: from the ENE (070 degrees) at 9 MPH (8 KT):0
Visibility: 9 mile(s):0
Sky conditions: clear
Temperature: 48 F (9 C)
Dew Point: 46 F (8 C)
Relative Humidity: 93%
Pressure (altimeter): 30.22 in. Hg (1023 hPa)
ob: CYPR 210300Z AUTO 07008KT 9SM CLR 09/08 A3022 RMK SLP236
cycle: 3

Station Type Date Time Source
CYPR TAF 2018/10/21 01:42 UTC NOAA

TAF TAF CYPR 210038Z 2101/2113 VRB03KT P6SM FEW006 SCT040
FM210900 09006KT P6SM FEW040 SCT160
RMK FCST BASED ON AUTO OBS. NXT FCST BY 210700Z


Example: see airport list